Kezdőlap
METAR-TAF:

METAR-TAF

Repülőterek :

Bad Vöslau, Ausztria

földrajzi szélesség: 47-57-52N, földrajzi hosszúság: 016-15-34E, magasság: 233 m

Jelenlegi meteorológiai megfigyelések

A jelentés 6 órával és 33 perccel ezelõtt készült, 15:00 UTC
Dél-délkeleti szél 8 kt
Hőmérséklet 25°C
Páratartalom 41%
Légköri nyomás
Látótávolság 10 km, vagy több
Kevés felhő 4000 lábon

METAR: LOAV 271500Z 15008KT 9999 FEW040 25/11

Idő: 23:33 (21:33 UTC)

Előrejelzés

A jelentés 10 órával és 18 perccel ezelõtt készült, 11:15 UTC
Az előrejelzés 27-én 12 óra UTC és 27-én 21 óra UTC között érvényes
Dél-délkeleti szél 10 kt
Látótávolság 10 km, vagy több
Kevés felhő 4000 lábon
27-én 12 óra UTC és 27-én 16 óra UTC között ideiglenes
Kevés felhő 5000 lábon, Cumulonimbus.
27-én 17 óra UTC és 27-én 19 óra UTC között fokozatosan kialakuló
Dél-délkeleti szél 4 kt

TAF: LOAV 271115Z 2712/2721 16010KT 9999 FEW040 TEMPO 2712/2716 FEW050CB BECMG 2717/2719 16004KT

Meteorológiai megfigyelések és előrejelzések több, mint 4000 repülőtéren (METAR és TAF jelentéseket).

A térképen piros és sárga pontok jelzik az elérhető meteorológiai állomásokat.

Mozgassa az egeret a pont fölött, hogy megjelenjen az állomás neve.

Azután kattintson az időjárási megfigyelések és előrejelzések megtekintéséhez.

A térkép megváltoztatása: kattintson a fekete keresztel jelölt zöld gombra ráközelítéshez, a vonallal jelölt zöld gombra távolításhoz, vagy a zöld nyilakra a szomszédos térképek eléréséhez.


METAR-TAF: